Time;durP1;ratioP1;P1;durP2;ratioP2;P2;SDS_P1;SDS_P2;PMS_P1;PMS_P2;Temp;Humidity;BMP_temperature;BMP_pressure;BME280_temperature;BME280_humidity;BME280_pressure;Samples;Min_cycle;Max_cycle;Signal;HPM_P1;HPM_P2
2022/12/26 00:00:46;;;;;;;;;;;;;;;14.41;51.69;99621.19;4483689;31;34449;-92
2022/12/26 00:03:14;;;;;;;;;;;;;;;14.78;50.62;99610.94;4485220;31;35158;-89
2022/12/26 00:05:41;;;;;;;;;;;;;;;15.18;49.63;99624.06;4479808;32;34017;-81
2022/12/26 00:08:09;;;;;;;;;;;;;;;15.74;47.99;99625.84;4478850;31;35233;-89
2022/12/26 00:10:37;;;;;;;;;;;;;;;15.74;48.02;99628.47;4481214;31;33123;-81
2022/12/26 00:13:07;;;;;;;;;;;;;;;15.81;47.67;99627.59;4478071;32;34201;-86
2022/12/26 00:15:54;;;;;;;;;;;;;;;16.13;47.13;99621.44;4469610;32;35218;-82
2022/12/26 00:18:21;;;;;;;;;;;;;;;16.34;46.33;99624.00;4464770;32;34785;-82
2022/12/26 00:20:49;;;;;;;;;;;;;;;16.23;46.20;99621.41;4482270;31;34441;-82
2022/12/26 00:23:16;;;;;;;;;;;;;;;16.58;45.60;99624.75;4467976;32;32541;-92
2022/12/26 00:25:43;;;;;;;;;;;;;;;16.25;45.70;99624.00;4481692;32;35170;-83
2022/12/26 00:28:11;;;;;;;;;;;;;;;16.30;45.71;99622.25;4483603;31;34215;-93
2022/12/26 00:30:38;;;;;;;;;;;;;;;16.31;45.64;99616.16;4478637;32;33626;-83
2022/12/26 00:33:05;;;;;;;;;;;;;;;16.51;45.00;99613.44;4481417;31;34414;-91
2022/12/26 00:35:33;;;;;;;;;;;;;;;16.28;45.54;99610.91;4484652;31;35204;-89
2022/12/26 00:38:00;;;;;;;;;;;;;;;16.07;46.00;99611.00;4488534;31;33642;-90
2022/12/26 00:40:28;;;;;;;;;;;;;;;16.43;45.00;99610.84;4484847;31;33766;-91
2022/12/26 00:42:55;;;;;;;;;;;;;;;16.26;45.10;99617.91;4483469;31;34893;-80
2022/12/26 00:45:24;;;;;;;;;;;;;;;15.94;46.17;99617.97;4483853;31;33927;-92
2022/12/26 00:47:51;;;;;;;;;;;;;;;16.21;45.27;99625.78;4481679;31;34201;-91
2022/12/26 00:50:18;;;;;;;;;;;;;;;16.20;45.25;99624.03;4459441;31;885088;-80
2022/12/26 00:52:45;;;;;;;;;;;;;;;16.02;45.72;99624.97;4483153;31;33817;-92
2022/12/26 00:55:13;;;;;;;;;;;;;;;16.24;45.25;99622.25;4483533;31;35157;-81
2022/12/26 00:57:40;;;;;;;;;;;;;;;16.13;45.24;99629.28;4484531;31;34381;-81
2022/12/26 01:00:08;;;;;;;;;;;;;;;16.35;44.83;99627.47;4489792;31;34491;-81
2022/12/26 01:02:38;;;;;;;;;;;;;;;16.04;45.57;99622.31;4483375;31;34371;-81
2022/12/26 01:05:07;;;;;;;;;;;;;;;16.25;45.00;99616.16;4482589;31;35173;-85
2022/12/26 01:07:35;;;;;;;;;;;;;;;16.16;45.04;99616.19;4475727;31;33891;-82
2022/12/26 01:10:22;;;;;;;;;;;;;;;16.40;44.39;99626.59;4493839;31;33850;-80
2022/12/26 01:12:50;;;;;;;;;;;;;;;16.49;44.04;99616.09;4486141;31;34981;-81
2022/12/26 01:15:18;;;;;;;;;;;;;;;16.59;43.65;99610.78;4483766;32;34963;-93
2022/12/26 01:17:46;;;;;;;;;;;;;;;16.44;43.96;99612.63;4482772;31;34521;-94
2022/12/26 01:20:13;;;;;;;;;;;;;;;16.31;44.04;99610.91;4484460;32;33420;-85
2022/12/26 01:22:40;;;;;;;;;;;;;;;16.05;44.52;99609.22;4484678;31;33875;-84
2022/12/26 01:25:09;;;;;;;;;;;;;;;16.38;43.97;99607.41;4492609;31;35254;-84
2022/12/26 01:27:36;;;;;;;;;;;;;;;15.83;45.31;99607.53;4491797;31;34333;-88
2022/12/26 01:30:04;;;;;;;;;;;;;;;15.88;45.40;99611.03;4479760;32;33149;-92
2022/12/26 01:32:31;;;;;;;;;;;;;;;16.27;44.46;99610.03;4483815;32;33967;-81
2022/12/26 01:34:59;;;;;;;;;;;;;;;16.47;44.00;99596.00;4486855;31;34528;-86
2022/12/26 01:37:26;;;;;;;;;;;;;;;16.04;44.85;99596.16;4484171;31;34186;-81
2022/12/26 01:39:53;;;;;;;;;;;;;;;16.16;44.76;99585.66;4485424;31;33750;-91
2022/12/26 01:42:23;;;;;;;;;;;;;;;16.13;44.48;99588.28;4470838;32;33662;-93
2022/12/26 01:45:06;;;;;;;;;;;;;;;15.23;46.71;99586.62;4472754;32;34789;-94
2022/12/26 01:47:45;;;;;;;;;;;;;;;15.55;46.31;99585.75;4484222;32;34332;-92
2022/12/26 01:50:26;;;;;;;;;;;;;;;16.04;45.10;99573.50;4470027;31;33290;-93
2022/12/26 01:52:55;;;;;;;;;;;;;;;16.07;44.88;99577.00;4494786;31;34687;-81
2022/12/26 01:55:22;;;;;;;;;;;;;;;16.10;44.60;99585.69;4491345;31;33617;-81
2022/12/26 01:57:54;;;;;;;;;;;;;;;16.09;44.69;99583.06;4474434;32;34290;-83
2022/12/26 02:00:22;;;;;;;;;;;;;;;16.04;44.54;99564.78;4473286;31;34119;-82
2022/12/26 02:05:36;;;;;;;;;;;;;;;15.20;46.65;99567.47;4481874;31;34364;-93
2022/12/26 02:08:13;;;;;;;;;;;;;;;14.92;47.09;99577.88;4499838;31;34229;-82
2022/12/26 02:10:49;;;;;;;;;;;;;;;15.14;46.91;99578.78;4474292;31;32572;-94
2022/12/26 02:13:16;;;;;;;;;;;;;;;15.25;46.46;99570.97;4483052;31;34348;-82
2022/12/26 02:15:44;;;;;;;;;;;;;;;15.16;46.52;99570.97;4479358;31;35216;-93
2022/12/26 02:18:11;;;;;;;;;;;;;;;15.48;45.69;99571.81;4483103;32;34853;-88
2022/12/26 02:20:40;;;;;;;;;;;;;;;15.55;45.08;99570.94;4468279;32;33511;-92
2022/12/26 02:23:17;;;;;;;;;;;;;;;15.74;44.61;99566.59;4466651;32;33535;-91
2022/12/26 02:26:02;;;;;;;;;;;;;;;15.75;44.67;99567.47;4485060;31;34740;-93
2022/12/26 02:28:30;;;;;;;;;;;;;;;15.69;44.66;99560.50;4475629;32;34112;-89
2022/12/26 02:31:16;;;;;;;;;;;;;;;15.32;45.45;99568.34;4488377;31;32809;-87
2022/12/26 02:33:47;;;;;;;;;;;;;;;15.31;45.65;99569.22;4485352;31;34985;-82
2022/12/26 02:36:14;;;;;;;;;;;;;;;15.41;45.26;99558.75;4495787;31;34278;-82
2022/12/26 02:38:50;;;;;;;;;;;;;;;15.48;45.11;99556.12;4491357;31;34553;-83
2022/12/26 02:41:25;;;;;;;;;;;;;;;15.38;45.44;99562.25;4492182;31;33741;-93
2022/12/26 02:47:40;;;;;;;;;;;;;;;15.51;44.86;99540.47;4412119;32;34393;-92
2022/12/26 03:15:28;;;;;;;;;;;;;;;14.95;44.53;99530.88;4472827;31;33576;-84
2022/12/26 03:18:00;;;;;;;;;;;;;;;14.84;44.62;99522.19;4476993;31;34889;-92
2022/12/26 03:20:37;;;;;;;;;;;;;;;15.04;44.19;99530.91;4476690;31;34429;-83
2022/12/26 03:23:05;;;;;;;;;;;;;;;14.77;44.64;99520.41;4484747;31;34965;-92
2022/12/26 03:28:22;;;;;;;;;;;;;;;14.98;44.02;99525.69;4486163;31;34752;-94
2022/12/26 03:30:50;;;;;;;;;;;;;;;14.71;44.60;99525.66;4484935;31;34283;-82
2022/12/26 03:36:10;;;;;;;;;;;;;;;14.83;44.17;99531.75;4483040;32;34410;-82
2022/12/26 03:38:50;;;;;;;;;;;;;;;14.81;44.12;99545.66;4485492;31;33994;-82
2022/12/26 04:21:05;;;;;;;;;;;;;;;14.10;45.08;99563.69;4472888;31;33723;-83
2022/12/26 04:46:26;;;;;;;;;;;;;;;14.28;44.86;99562.00;4471254;31;35030;-90
2022/12/26 04:51:39;;;;;;;;;;;;;;;14.45;44.49;99549.91;4478792;31;34357;-83
2022/12/26 04:54:06;;;;;;;;;;;;;;;14.58;44.37;99550.81;4486075;31;33017;-95
2022/12/26 04:56:34;;;;;;;;;;;;;;;14.65;43.78;99546.50;4498236;31;34880;-91
2022/12/26 04:59:01;;;;;;;;;;;;;;;14.75;43.22;99549.13;4484365;31;33803;-91
2022/12/26 05:09:51;;;;;;;;;;;;;;;14.59;43.46;99550.84;4484478;32;35283;-83
2022/12/26 05:12:19;;;;;;;;;;;;;;;14.29;43.57;99554.19;4472135;32;34642;-82
2022/12/26 05:14:46;;;;;;;;;;;;;;;14.38;43.57;99542.91;4470147;32;33479;-94
2022/12/26 05:31:06;;;;;;;;;;;;;;;14.60;42.67;99543.87;4465063;31;35060;-82
2022/12/26 05:36:19;;;;;;;;;;;;;;;14.42;43.16;99544.66;4498016;31;32929;-80
2022/12/26 05:38:47;;;;;;;;;;;;;;;14.54;43.24;99542.13;4479881;32;33777;-91
2022/12/26 05:41:14;;;;;;;;;;;;;;;14.64;43.05;99542.16;4486585;31;35333;-92
2022/12/26 05:43:42;;;;;;;;;;;;;;;14.64;42.88;99540.41;4480765;32;34542;-82
2022/12/26 05:46:09;;;;;;;;;;;;;;;14.70;42.79;99539.53;4487208;31;33691;-82
2022/12/26 05:48:36;;;;;;;;;;;;;;;14.80;42.81;99536.09;4495203;31;34895;-86
2022/12/26 05:51:04;;;;;;;;;;;;;;;14.90;42.59;99535.25;4483404;31;35408;-82
2022/12/26 05:53:31;;;;;;;;;;;;;;;14.65;43.10;99528.25;4484153;32;34492;-81
2022/12/26 05:56:03;;;;;;;;;;;;;;;14.74;43.16;99539.56;4484432;31;33691;-83
2022/12/26 05:58:31;;;;;;;;;;;;;;;14.81;42.74;99541.34;4486799;31;34185;-88
2022/12/26 06:01:03;;;;;;;;;;;;;;;14.71;42.97;99546.53;4469161;32;34512;-82
2022/12/26 06:03:31;;;;;;;;;;;;;;;14.57;43.40;99549.97;4483721;32;35218;-93
2022/12/26 06:05:58;;;;;;;;;;;;;;;14.79;42.66;99547.41;4485349;31;33778;-93
2022/12/26 06:08:25;;;;;;;;;;;;;;;14.84;42.72;99548.28;4487485;31;34378;-93
2022/12/26 06:10:53;;;;;;;;;;;;;;;14.89;42.30;99546.56;4495360;31;35245;-92
2022/12/26 06:13:20;;;;;;;;;;;;;;;14.82;42.34;99536.97;4478157;32;34348;-82
2022/12/26 06:15:47;;;;;;;;;;;;;;;14.86;42.43;99545.69;4468299;32;33698;-94
2022/12/26 06:18:15;;;;;;;;;;;;;;;14.66;42.40;99536.09;4469560;31;34341;-86
2022/12/26 06:20:42;;;;;;;;;;;;;;;14.73;42.37;99544.78;4485841;31;34356;-81
2022/12/26 06:23:09;;;;;;;;;;;;;;;14.79;42.07;99534.38;4487211;31;34331;-83
2022/12/26 06:25:36;;;;;;;;;;;;;;;14.42;42.27;99525.53;4495405;31;33727;-83
2022/12/26 06:28:04;;;;;;;;;;;;;;;14.63;42.12;99530.00;4499690;31;34662;-82
2022/12/26 06:30:31;;;;;;;;;;;;;;;14.67;41.71;99530.00;4484384;31;34438;-81
2022/12/26 06:32:58;;;;;;;;;;;;;;;14.42;42.00;99522.94;4495957;31;34130;-85
2022/12/26 06:35:25;;;;;;;;;;;;;;;14.45;42.26;99526.41;4501075;31;33874;-92
2022/12/26 06:37:53;;;;;;;;;;;;;;;14.63;41.76;99522.16;4494151;31;33737;-92
2022/12/26 06:40:20;;;;;;;;;;;;;;;14.62;41.72;99530.84;4486462;31;35349;-92
2022/12/26 06:42:47;;;;;;;;;;;;;;;14.57;41.79;99528.22;4472617;32;34540;-82
2022/12/26 06:45:15;;;;;;;;;;;;;;;14.55;41.89;99524.75;4483740;32;33694;-92
2022/12/26 06:47:42;;;;;;;;;;;;;;;14.58;41.97;99529.97;4483529;32;33605;-81
2022/12/26 06:50:09;;;;;;;;;;;;;;;14.66;41.85;99523.03;4478007;32;33854;-93
2022/12/26 06:52:36;;;;;;;;;;;;;;;14.69;41.61;99529.97;4492163;31;33902;-82
2022/12/26 06:55:04;;;;;;;;;;;;;;;14.71;41.70;99530.88;4499704;31;33215;-82
2022/12/26 06:57:31;;;;;;;;;;;;;;;14.58;42.17;99529.97;4485525;31;33806;-89
2022/12/26 06:59:59;;;;;;;;;;;;;;;14.54;42.54;99529.06;4492090;31;34473;-93
2022/12/26 07:02:29;;;;;;;;;;;;;;;14.47;42.37;99521.19;4483931;31;34047;-81
2022/12/26 07:04:57;;;;;;;;;;;;;;;14.48;42.31;99521.22;4483730;32;33640;-86
2022/12/26 07:07:24;;;;;;;;;;;;;;;14.66;42.19;99522.16;4483205;32;35182;-82
2022/12/26 07:09:51;;;;;;;;;;;;;;;14.50;42.48;99527.31;4483369;32;34059;-80
2022/12/26 07:12:20;;;;;;;;;;;;;;;14.41;42.85;99531.62;4475930;31;34112;-86
2022/12/26 07:14:48;;;;;;;;;;;;;;;14.43;42.94;99535.97;4483412;32;34196;-82
2022/12/26 07:17:15;;;;;;;;;;;;;;;14.01;44.29;99553.19;4483672;32;34041;-94
2022/12/26 07:19:42;;;;;;;;;;;;;;;13.99;44.75;99551.44;4483581;32;34245;-81
2022/12/26 07:22:09;;;;;;;;;;;;;;;13.99;45.21;99554.06;4485628;31;34277;-82
2022/12/26 07:24:37;;;;;;;;;;;;;;;14.03;45.60;99555.81;4483362;32;33741;-81
2022/12/26 07:27:04;;;;;;;;;;;;;;;14.05;46.03;99556.69;4483128;31;33710;-87
2022/12/26 07:29:31;;;;;;;;;;;;;;;14.31;45.75;99562.00;4483318;32;34108;-89
2022/12/26 07:31:59;;;;;;;;;;;;;;;14.62;45.24;99562.16;4487400;31;34138;-89
2022/12/26 07:34:27;;;;;;;;;;;;;;;14.57;45.28;99562.12;4491966;31;34348;-90
2022/12/26 07:36:59;;;;;;;;;;;;;;;14.62;45.41;99567.37;4469599;32;34139;-91
2022/12/26 07:39:26;;;;;;;;;;;;;;;14.81;45.27;99563.94;4483443;32;34513;-83
2022/12/26 07:41:56;;;;;;;;;;;;;;;14.77;45.54;99567.41;4485820;31;34174;-90
2022/12/26 07:44:26;;;;;;;;;;;;;;;14.74;45.66;99564.81;4499053;31;33692;-84
2022/12/26 07:46:53;;;;;;;;;;;;;;;14.78;45.75;99564.81;4499463;31;35009;-82
2022/12/26 07:49:21;;;;;;;;;;;;;;;14.70;46.16;99558.72;4499303;31;33962;-93
2022/12/26 07:51:48;;;;;;;;;;;;;;;14.84;46.04;99566.56;4488959;31;33658;-81
2022/12/26 07:54:17;;;;;;;;;;;;;;;14.89;45.86;99574.37;4483424;32;33535;-87
2022/12/26 07:56:44;;;;;;;;;;;;;;;14.90;46.02;99577.00;4469472;31;34549;-92
2022/12/26 07:59:12;;;;;;;;;;;;;;;15.34;45.12;99578.78;4483001;32;35216;-81
2022/12/26 08:01:40;;;;;;;;;;;;;;;15.47;44.56;99593.59;4486895;31;34066;-83
2022/12/26 08:04:09;;;;;;;;;;;;;;;15.04;45.63;99588.34;4483474;32;33469;-94
2022/12/26 08:06:37;;;;;;;;;;;;;;;15.41;44.99;99587.50;4484131;32;33752;-83
2022/12/26 08:09:04;;;;;;;;;;;;;;;15.45;45.01;99582.25;4491790;31;33803;-93
2022/12/26 08:11:33;;;;;;;;;;;;;;;15.51;45.01;99584.03;4488303;31;34612;-94
2022/12/26 08:14:00;;;;;;;;;;;;;;;15.57;44.63;99568.34;4482991;31;34462;-92
2022/12/26 08:16:28;;;;;;;;;;;;;;;15.68;44.26;99581.41;4471955;31;33993;-91
2022/12/26 08:18:55;;;;;;;;;;;;;;;15.67;44.35;99571.84;4484145;32;35444;-86
2022/12/26 08:21:22;;;;;;;;;;;;;;;15.61;44.76;99579.63;4486422;31;34322;-85
2022/12/26 08:23:50;;;;;;;;;;;;;;;15.75;44.62;99583.16;4487277;31;33656;-93
2022/12/26 08:26:21;;;;;;;;;;;;;;;15.36;45.48;99584.88;4484582;31;34173;-82
2022/12/26 08:28:49;;;;;;;;;;;;;;;15.25;45.81;99591.84;4484210;31;35355;-91
2022/12/26 08:31:17;;;;;;;;;;;;;;;15.09;46.15;99591.84;4484804;31;35256;-91
2022/12/26 08:33:45;;;;;;;;;;;;;;;15.29;45.92;99598.81;4495707;31;33415;-92
2022/12/26 08:36:15;;;;;;;;;;;;;;;15.22;46.20;99590.09;4484363;31;33511;-82
2022/12/26 08:38:44;;;;;;;;;;;;;;;15.51;45.50;99590.09;4493325;31;34110;-90
2022/12/26 08:41:12;;;;;;;;;;;;;;;13.78;50.00;99596.50;4486726;31;34461;-81
2022/12/26 08:43:39;;;;;;;;;;;;;;;14.60;48.24;99596.06;4495041;31;33494;-88
2022/12/26 08:46:26;;;;;;;;;;;;;;;13.98;49.70;99607.94;4489494;31;33900;-81
2022/12/26 08:48:53;;;;;;;;;;;;;;;14.82;47.30;99604.84;4489514;31;34175;-88
2022/12/26 08:51:22;;;;;;;;;;;;;;;14.49;47.93;99603.84;4484755;31;34208;-86
2022/12/26 08:53:50;;;;;;;;;;;;;;;14.63;47.76;99587.41;4498369;31;33493;-92
2022/12/26 08:56:19;;;;;;;;;;;;;;;15.14;46.71;99594.44;4471108;32;34945;-92
2022/12/26 08:58:46;;;;;;;;;;;;;;;14.34;48.44;99591.59;4483575;32;34360;-91
2022/12/26 09:01:18;;;;;;;;;;;;;;;14.95;47.59;99598.78;4488027;31;34550;-93
2022/12/26 09:03:45;;;;;;;;;;;;;;;15.44;46.52;99596.22;4489843;31;33157;-92
2022/12/26 09:06:13;;;;;;;;;;;;;;;15.44;46.59;99603.19;4468412;32;34524;-87
2022/12/26 09:08:41;;;;;;;;;;;;;;;15.44;46.61;99608.41;4482485;32;34051;-83
2022/12/26 09:11:09;;;;;;;;;;;;;;;15.76;45.55;99605.81;4473323;32;34210;-90
2022/12/26 09:13:37;;;;;;;;;;;;;;;15.39;46.34;99607.53;4482499;31;33663;-93
2022/12/26 09:16:06;;;;;;;;;;;;;;;15.39;46.53;99608.41;4476323;32;34255;-86
2022/12/26 09:18:34;;;;;;;;;;;;;;;15.34;46.98;99625.81;4467905;32;34070;-85
2022/12/26 09:21:01;;;;;;;;;;;;;;;15.71;46.31;99618.00;4488024;31;35011;-91
2022/12/26 09:23:29;;;;;;;;;;;;;;;16.02;45.81;99616.22;4481986;32;33535;-89
2022/12/26 09:26:27;;;;;;;;;;;;;;;16.25;45.39;99616.16;4484437;31;33993;-91
2022/12/26 09:28:54;;;;;;;;;;;;;;;16.26;45.25;99612.69;4454466;32;35032;-92
2022/12/26 09:31:23;;;;;;;;;;;;;;;15.91;45.98;99620.59;4468918;32;34500;-91
2022/12/26 09:33:52;;;;;;;;;;;;;;;15.92;46.02;99623.22;4484874;32;33782;-92
2022/12/26 09:36:20;;;;;;;;;;;;;;;15.02;48.00;99629.25;4484568;32;35002;-88
2022/12/26 09:38:47;;;;;;;;;;;;;;;15.38;47.52;99624.06;4486551;31;34441;-87
2022/12/26 09:41:18;;;;;;;;;;;;;;;14.60;49.74;99620.44;4488097;31;35207;-86
2022/12/26 09:43:48;;;;;;;;;;;;;;;15.23;48.22;99619.72;4475033;32;34197;-93
2022/12/26 09:46:35;;;;;;;;;;;;;;;14.97;48.93;99625.78;4472923;32;34953;-83
2022/12/26 09:49:05;;;;;;;;;;;;;;;15.03;48.58;99620.53;4468878;32;34451;-88
2022/12/26 09:51:32;;;;;;;;;;;;;;;14.91;49.15;99623.12;4469108;32;34183;-92
2022/12/26 09:54:00;;;;;;;;;;;;;;;15.16;48.63;99624.06;4478465;32;33398;-91
2022/12/26 09:56:27;;;;;;;;;;;;;;;15.18;48.57;99626.66;4473683;32;34970;-81
2022/12/26 09:59:16;;;;;;;;;;;;;;;15.18;48.68;99618.81;4483429;31;35260;-92
2022/12/26 10:01:47;;;;;;;;;;;;;;;15.74;47.43;99624.09;4470907;32;34422;-80
2022/12/26 10:04:28;;;;;;;;;;;;;;;15.88;47.15;99615.38;4484741;32;34807;-89
2022/12/26 10:06:56;;;;;;;;;;;;;;;16.04;46.71;99607.50;4470478;32;34092;-91
2022/12/26 10:09:29;;;;;;;;;;;;;;;16.31;46.33;99600.44;4482981;31;34268;-88
2022/12/26 10:12:19;;;;;;;;;;;;;;;16.48;45.91;99606.50;4469301;32;34369;-92
2022/12/26 10:14:54;;;;;;;;;;;;;;;15.89;46.95;99610.16;4481900;32;33802;-91
2022/12/26 10:17:30;;;;;;;;;;;;;;;16.05;46.74;99598.78;4471108;32;35645;-82
2022/12/26 10:20:03;;;;;;;;;;;;;;;16.42;46.17;99603.88;4470483;31;34046;-82
2022/12/26 10:22:49;;;;;;;;;;;;;;;16.27;46.59;99596.09;4484865;31;35057;-94
2022/12/26 10:25:17;;;;;;;;;;;;;;;16.23;46.78;99597.00;4484285;31;34058;-83
2022/12/26 10:27:46;;;;;;;;;;;;;;;16.04;47.27;99594.41;4473053;32;34139;-94
2022/12/26 10:30:15;;;;;;;;;;;;;;;16.12;47.27;99591.78;4482734;31;34226;-84
2022/12/26 10:32:43;;;;;;;;;;;;;;;15.85;48.08;99584.88;4480940;31;34248;-84
2022/12/26 10:35:29;;;;;;;;;;;;;;;16.26;47.23;99578.66;4470204;31;34400;-82
2022/12/26 10:37:58;;;;;;;;;;;;;;;16.51;46.58;99569.81;4490867;31;34278;-90
2022/12/26 10:40:28;;;;;;;;;;;;;;;16.02;47.73;99575.25;4469035;31;34401;-88
2022/12/26 10:42:56;;;;;;;;;;;;;;;15.91;48.00;99569.19;4465835;32;34089;-92
2022/12/26 10:45:30;;;;;;;;;;;;;;;16.60;46.63;99562.81;4479704;31;34401;-83
2022/12/26 10:47:57;;;;;;;;;;;;;;;16.11;47.74;99569.13;4493528;31;33816;-84
2022/12/26 10:50:26;;;;;;;;;;;;;;;15.74;47.87;99570.97;4480797;31;34263;-89
2022/12/26 10:52:54;;;;;;;;;;;;;;;15.47;49.61;99553.53;4469225;31;34188;-82
2022/12/26 10:55:33;;;;;;;;;;;;;;;15.65;49.25;99571.84;4476403;31;32952;-88
2022/12/26 10:58:04;;;;;;;;;;;;;;;15.63;49.51;99562.22;4483176;31;34212;-89
2022/12/26 11:00:32;;;;;;;;;;;;;;;15.74;48.77;99550.03;4469298;31;34947;-91
2022/12/26 11:03:04;;;;;;;;;;;;;;;15.00;49.78;99550.06;4467143;32;34783;-92
2022/12/26 11:05:33;;;;;;;;;;;;;;;15.72;48.31;99538.72;4481292;31;34114;-87
2022/12/26 11:08:39;;;;;;;;;;;;;;;15.80;48.17;99534.34;4481926;31;34256;-85
2022/12/26 11:11:13;;;;;;;;;;;;;;;15.97;48.17;99526.44;4483085;31;33766;-92
2022/12/26 11:13:51;;;;;;;;;;;;;;;15.63;48.69;99525.62;4488025;31;34376;-87
2022/12/26 11:16:33;;;;;;;;;;;;;;;15.79;48.27;99522.13;4471599;31;34269;-91
2022/12/26 11:19:01;;;;;;;;;;;;;;;16.25;47.63;99511.50;4476827;31;34222;-89
2022/12/26 11:21:29;;;;;;;;;;;;;;;15.81;48.23;99510.81;4472870;31;34156;-83
2022/12/26 11:24:08;;;;;;;;;;;;;;;16.46;46.98;99511.41;4481283;31;34424;-90
2022/12/26 11:26:36;;;;;;;;;;;;;;;16.40;47.37;99511.47;4479733;31;34091;-91
2022/12/26 11:29:10;;;;;;;;;;;;;;;16.13;47.71;99507.19;4474576;32;34700;-86
2022/12/26 11:31:42;;;;;;;;;;;;;;;16.44;47.19;99513.19;4481215;31;35378;-84
2022/12/26 11:34:10;;;;;;;;;;;;;;;16.72;46.41;99513.00;4476286;31;35359;-83
2022/12/26 11:36:48;;;;;;;;;;;;;;;17.39;44.89;99523.00;4477459;31;33112;-91
2022/12/26 11:39:20;;;;;;;;;;;;;;;16.64;46.55;99525.28;4477088;31;34199;-86
2022/12/26 11:41:48;;;;;;;;;;;;;;;17.02;45.55;99523.28;4476366;31;34368;-90
2022/12/26 11:44:26;;;;;;;;;;;;;;;17.02;45.62;99523.28;4483320;31;34393;-92
2022/12/26 11:47:06;;;;;;;;;;;;;;;16.87;45.97;99515.53;4469805;31;33913;-91
2022/12/26 11:49:37;;;;;;;;;;;;;;;17.01;45.93;99516.31;4477140;31;34482;-86
2022/12/26 11:52:23;;;;;;;;;;;;;;;17.34;45.07;99516.91;4473527;32;34573;-86
2022/12/26 11:54:55;;;;;;;;;;;;;;;17.62;43.95;99508.78;4479091;31;34959;-86
2022/12/26 11:57:28;;;;;;;;;;;;;;;17.14;45.33;99513.59;4486458;31;33247;-83
2022/12/26 12:00:13;;;;;;;;;;;;;;;17.57;44.17;99507.94;4469613;32;33785;-91
2022/12/26 12:02:40;;;;;;;;;;;;;;;17.73;43.44;99512.16;4466234;32;34151;-93
2022/12/26 12:05:12;;;;;;;;;;;;;;;17.64;43.67;99512.25;4474907;31;35258;-91
2022/12/26 12:07:46;;;;;;;;;;;;;;;17.68;43.66;99506.09;4482627;31;34121;-89
2022/12/26 12:10:17;;;;;;;;;;;;;;;16.11;47.53;99513.34;4495030;31;34907;-92
2022/12/26 12:12:52;;;;;;;;;;;;;;;17.16;45.33;99515.34;4483218;32;34563;-92
2022/12/26 12:15:30;;;;;;;;;;;;;;;16.39;46.83;99507.06;4483478;31;34578;-91
2022/12/26 12:18:01;;;;;;;;;;;;;;;16.74;46.22;99506.91;4453445;32;33625;-87
2022/12/26 12:20:58;;;;;;;;;;;;;;;16.98;45.81;99492.75;4455305;31;33887;-92
2022/12/26 12:23:38;;;;;;;;;;;;;;;16.99;45.75;99496.25;4453827;31;34391;-83
2022/12/26 12:26:05;;;;;;;;;;;;;;;17.17;45.32;99500.47;4480438;31;34209;-91
2022/12/26 12:28:33;;;;;;;;;;;;;;;16.88;46.13;99504.19;4484539;31;34297;-91
2022/12/26 12:31:00;;;;;;;;;;;;;;;17.40;45.10;99487.16;4480599;31;34867;-92
2022/12/26 12:33:31;;;;;;;;;;;;;;;16.93;46.26;99491.03;4480703;31;34373;-91
2022/12/26 12:36:01;;;;;;;;;;;;;;;16.17;48.27;99493.22;4485571;31;34862;-93
2022/12/26 12:38:34;;;;;;;;;;;;;;;16.66;46.99;99497.31;4488345;31;34345;-91
2022/12/26 12:41:20;;;;;;;;;;;;;;;15.64;49.37;99502.09;4492823;31;34770;-87
2022/12/26 12:43:53;;;;;;;;;;;;;;;16.58;47.61;99505.22;4479528;31;34193;-92
2022/12/26 12:46:26;;;;;;;;;;;;;;;16.96;46.49;99505.00;4483454;31;34403;-88
2022/12/26 12:49:01;;;;;;;;;;;;;;;16.46;47.80;99500.94;4484848;31;33788;-89
2022/12/26 12:51:46;;;;;;;;;;;;;;;16.20;48.88;99495.84;4478216;31;35171;-85
2022/12/26 12:54:13;;;;;;;;;;;;;;;16.71;47.69;99480.72;4457556;32;33574;-90
2022/12/26 12:56:45;;;;;;;;;;;;;;;17.41;45.94;99473.16;4480394;32;34387;-83
2022/12/26 12:59:25;;;;;;;;;;;;;;;17.09;46.61;99483.97;4481004;31;33373;-92
2022/12/26 13:01:54;;;;;;;;;;;;;;;16.44;48.39;99487.00;4489032;31;34535;-94
2022/12/26 13:04:26;;;;;;;;;;;;;;;17.12;46.73;99481.28;4471254;31;34117;-93
2022/12/26 13:07:01;;;;;;;;;;;;;;;17.39;46.35;99473.19;4477366;31;33997;-87
2022/12/26 13:09:55;;;;;;;;;;;;;;;17.37;46.37;99469.69;4466303;31;32896;-93
2022/12/26 13:12:26;;;;;;;;;;;;;;;17.49;45.92;99466.09;4482530;31;33736;-85
2022/12/26 13:14:58;;;;;;;;;;;;;;;16.72;48.23;99477.22;4485394;31;34603;-82
2022/12/26 13:17:31;;;;;;;;;;;;;;;17.06;47.47;99473.50;4462801;32;33987;-93
2022/12/26 13:19:59;;;;;;;;;;;;;;;17.42;46.63;99464.41;4485704;31;34354;-93
2022/12/26 13:25:26;;;;;;;;;;;;;;;17.42;46.76;99481.00;4485999;31;34341;-92
2022/12/26 13:27:54;;;;;;;;;;;;;;;16.43;49.07;99480.00;4466819;31;34791;-88
2022/12/26 13:30:28;;;;;;;;;;;;;;;16.03;50.18;99472.38;4475111;31;34084;-83
2022/12/26 13:32:55;;;;;;;;;;;;;;;15.99;50.13;99472.41;4468122;32;35103;-93
2022/12/26 13:35:41;;;;;;;;;;;;;;;15.99;50.54;99477.66;4471785;31;35244;-87
2022/12/26 13:38:09;;;;;;;;;;;;;;;16.36;49.31;99485.28;4484618;31;35364;-84
2022/12/26 13:40:36;;;;;;;;;;;;;;;16.90;47.91;99484.09;4491470;31;33537;-86
2022/12/26 13:46:55;;;;;;;;;;;;;;;17.28;46.82;99482.91;4477954;31;34110;-82
2022/12/26 13:49:38;;;;;;;;;;;;;;;17.52;46.17;99474.78;4442538;32;33876;-93
2022/12/26 13:52:13;;;;;;;;;;;;;;;17.74;45.40;99474.56;4443946;32;33412;-94
2022/12/26 13:54:46;;;;;;;;;;;;;;;17.59;45.34;99482.59;4457641;31;34649;-90
2022/12/26 13:57:26;;;;;;;;;;;;;;;17.73;45.26;99485.94;4483257;32;34231;-92
2022/12/26 14:00:03;;;;;;;;;;;;;;;17.83;44.92;99484.97;4481648;31;34264;-92
2022/12/26 14:02:53;;;;;;;;;;;;;;;17.87;44.54;99478.81;4491293;31;32701;-95
2022/12/26 14:05:43;;;;;;;;;;;;;;;17.96;44.42;99483.94;4472148;31;34033;-88
2022/12/26 14:08:24;;;;;;;;;;;;;;;18.14;43.89;99482.84;4484635;31;35053;-91
2022/12/26 14:11:07;;;;;;;;;;;;;;;17.39;45.07;99491.53;4469749;32;35026;-93
2022/12/26 14:13:53;;;;;;;;;;;;;;;17.83;44.28;99492.84;4479988;31;33314;-91
2022/12/26 14:16:35;;;;;;;;;;;;;;;17.90;43.98;99488.41;4481821;31;33697;-91
2022/12/26 14:19:03;;;;;;;;;;;;;;;17.82;43.78;99491.09;4485218;31;32726;-91
2022/12/26 14:21:39;;;;;;;;;;;;;;;16.85;45.94;99496.34;4484443;31;34139;-93
2022/12/26 14:24:09;;;;;;;;;;;;;;;17.40;44.79;99480.16;4467022;31;33214;-89
2022/12/26 14:26:38;;;;;;;;;;;;;;;17.77;43.87;99487.69;4475926;32;34289;-85
2022/12/26 14:29:14;;;;;;;;;;;;;;;17.85;43.45;99493.69;4480432;31;34043;-89
2022/12/26 14:31:47;;;;;;;;;;;;;;;17.22;44.65;99496.91;4482211;32;35266;-89
2022/12/26 14:34:33;;;;;;;;;;;;;;;17.37;44.42;99503.78;4475573;31;34281;-89
2022/12/26 14:37:19;;;;;;;;;;;;;;;17.66;43.79;99506.13;4481092;32;34027;-84
2022/12/26 14:40:06;;;;;;;;;;;;;;;17.83;43.26;99498.09;4478067;31;34911;-88
2022/12/26 14:43:12;;;;;;;;;;;;;;;17.80;43.05;99497.25;4470439;31;35065;-82
2022/12/26 14:45:47;;;;;;;;;;;;;;;17.67;43.10;99501.72;4477335;31;34340;-91
2022/12/26 14:48:15;;;;;;;;;;;;;;;17.59;43.08;99507.06;4491458;31;33793;-85
2022/12/26 14:50:53;;;;;;;;;;;;;;;17.37;43.25;99513.41;4489953;31;35909;-94
2022/12/26 14:53:27;;;;;;;;;;;;;;;17.06;43.94;99513.66;4494095;31;35162;-93
2022/12/26 14:55:57;;;;;;;;;;;;;;;17.36;43.27;99509.03;4488560;31;33685;-90
2022/12/26 14:58:27;;;;;;;;;;;;;;;17.60;42.63;99503.53;4484737;31;33779;-86
2022/12/26 15:00:55;;;;;;;;;;;;;;;17.63;42.27;99498.28;4486954;31;35249;-84
2022/12/26 15:03:26;;;;;;;;;;;;;;;17.66;41.98;99492.13;4477309;31;34518;-90
2022/12/26 15:05:53;;;;;;;;;;;;;;;17.25;42.39;99490.78;4483981;31;33576;-95
2022/12/26 15:08:30;;;;;;;;;;;;;;;17.23;42.39;99495.16;4488408;31;35576;-86
2022/12/26 15:11:07;;;;;;;;;;;;;;;17.42;41.99;99481.00;4487868;31;35258;-87
2022/12/26 15:13:40;;;;;;;;;;;;;;;17.29;42.04;99487.25;4464524;31;35203;-91
2022/12/26 15:16:14;;;;;;;;;;;;;;;16.81;42.94;99492.00;4492471;31;33695;-88
2022/12/26 15:18:48;;;;;;;;;;;;;;;17.10;42.39;99486.56;4472296;32;33949;-92
2022/12/26 15:21:18;;;;;;;;;;;;;;;17.17;42.29;99482.13;4487720;31;34577;-88
2022/12/26 15:24:04;;;;;;;;;;;;;;;17.15;42.22;99481.25;4484819;31;34593;-93